sensor_id;sensor_type;location;lat;lon;timestamp;temperature;humidity
11122;DHT22;5615;49.304;10.576;2022-09-27T00:01:11;10.20;99.90
11122;DHT22;5615;49.304;10.576;2022-09-27T00:03:38;10.10;99.90
11122;DHT22;5615;49.304;10.576;2022-09-27T00:06:07;10.10;99.90
11122;DHT22;5615;49.304;10.576;2022-09-27T00:08:34;10.00;99.90
11122;DHT22;5615;49.304;10.576;2022-09-27T00:11:03;10.00;99.90
11122;DHT22;5615;49.304;10.576;2022-09-27T00:13:30;10.00;99.90
11122;DHT22;5615;49.304;10.576;2022-09-27T00:15:59;10.00;99.90
11122;DHT22;5615;49.304;10.576;2022-09-27T00:18:27;9.90;99.90
11122;DHT22;5615;49.304;10.576;2022-09-27T00:20:55;9.90;99.90
11122;DHT22;5615;49.304;10.576;2022-09-27T00:23:22;10.00;99.90
11122;DHT22;5615;49.304;10.576;2022-09-27T00:25:55;9.90;99.90
11122;DHT22;5615;49.304;10.576;2022-09-27T00:28:22;9.90;99.90
11122;DHT22;5615;49.304;10.576;2022-09-27T00:30:49;10.00;99.90
11122;DHT22;5615;49.304;10.576;2022-09-27T00:33:17;10.00;99.90
11122;DHT22;5615;49.304;10.576;2022-09-27T00:35:44;10.00;99.90
11122;DHT22;5615;49.304;10.576;2022-09-27T00:38:11;10.00;99.90
11122;DHT22;5615;49.304;10.576;2022-09-27T00:40:38;10.00;99.90
11122;DHT22;5615;49.304;10.576;2022-09-27T00:43:12;9.90;99.90
11122;DHT22;5615;49.304;10.576;2022-09-27T00:45:40;9.80;99.90
11122;DHT22;5615;49.304;10.576;2022-09-27T00:48:12;9.80;99.90
11122;DHT22;5615;49.304;10.576;2022-09-27T00:50:43;9.70;99.90
11122;DHT22;5615;49.304;10.576;2022-09-27T00:53:15;9.60;99.90
11122;DHT22;5615;49.304;10.576;2022-09-27T00:55:45;9.60;99.90
11122;DHT22;5615;49.304;10.576;2022-09-27T00:58:18;9.60;99.90
11122;DHT22;5615;49.304;10.576;2022-09-27T01:00:48;9.50;99.90
11122;DHT22;5615;49.304;10.576;2022-09-27T01:03:23;9.50;99.90
11122;DHT22;5615;49.304;10.576;2022-09-27T01:05:53;9.40;99.90
11122;DHT22;5615;49.304;10.576;2022-09-27T01:08:20;9.30;99.90
11122;DHT22;5615;49.304;10.576;2022-09-27T01:10:53;9.30;99.90
11122;DHT22;5615;49.304;10.576;2022-09-27T01:13:31;9.20;99.90
11122;DHT22;5615;49.304;10.576;2022-09-27T01:16:06;9.00;99.90
11122;DHT22;5615;49.304;10.576;2022-09-27T01:18:41;9.00;99.90
11122;DHT22;5615;49.304;10.576;2022-09-27T01:21:29;8.90;99.90
11122;DHT22;5615;49.304;10.576;2022-09-27T01:24:28;8.90;99.90
11122;DHT22;5615;49.304;10.576;2022-09-27T01:30:25;8.90;99.90
11122;DHT22;5615;49.304;10.576;2022-09-27T01:33:06;8.90;99.90
11122;DHT22;5615;49.304;10.576;2022-09-27T01:35:36;8.90;99.90
11122;DHT22;5615;49.304;10.576;2022-09-27T01:38:11;8.90;99.90
11122;DHT22;5615;49.304;10.576;2022-09-27T01:40:48;8.90;99.90
11122;DHT22;5615;49.304;10.576;2022-09-27T01:43:19;8.90;99.90
11122;DHT22;5615;49.304;10.576;2022-09-27T01:45:52;8.90;99.90
11122;DHT22;5615;49.304;10.576;2022-09-27T01:48:22;8.80;99.90
11122;DHT22;5615;49.304;10.576;2022-09-27T01:50:51;8.80;99.90
11122;DHT22;5615;49.304;10.576;2022-09-27T01:53:22;8.80;99.90
11122;DHT22;5615;49.304;10.576;2022-09-27T01:55:52;8.80;99.90
11122;DHT22;5615;49.304;10.576;2022-09-27T01:58:23;8.70;99.90
11122;DHT22;5615;49.304;10.576;2022-09-27T02:00:53;8.70;99.90
11122;DHT22;5615;49.304;10.576;2022-09-27T02:03:23;8.70;99.90
11122;DHT22;5615;49.304;10.576;2022-09-27T02:05:55;8.70;99.90
11122;DHT22;5615;49.304;10.576;2022-09-27T02:08:28;8.70;99.90
11122;DHT22;5615;49.304;10.576;2022-09-27T02:10:57;8.70;99.90
11122;DHT22;5615;49.304;10.576;2022-09-27T02:13:31;8.70;99.90
11122;DHT22;5615;49.304;10.576;2022-09-27T02:16:08;8.80;99.90
11122;DHT22;5615;49.304;10.576;2022-09-27T02:18:47;8.80;99.90
11122;DHT22;5615;49.304;10.576;2022-09-27T02:21:17;8.80;99.90
11122;DHT22;5615;49.304;10.576;2022-09-27T02:23:47;8.80;99.90
11122;DHT22;5615;49.304;10.576;2022-09-27T02:26:18;8.90;99.90
11122;DHT22;5615;49.304;10.576;2022-09-27T02:28:51;8.80;99.90
11122;DHT22;5615;49.304;10.576;2022-09-27T02:31:21;8.90;99.90
11122;DHT22;5615;49.304;10.576;2022-09-27T02:33:51;8.90;99.90
11122;DHT22;5615;49.304;10.576;2022-09-27T02:36:20;8.90;99.90
11122;DHT22;5615;49.304;10.576;2022-09-27T02:38:47;8.80;99.90
11122;DHT22;5615;49.304;10.576;2022-09-27T02:41:15;8.90;99.90
11122;DHT22;5615;49.304;10.576;2022-09-27T02:43:44;8.90;99.90
11122;DHT22;5615;49.304;10.576;2022-09-27T02:46:27;8.90;99.90
11122;DHT22;5615;49.304;10.576;2022-09-27T02:49:09;8.90;99.90
11122;DHT22;5615;49.304;10.576;2022-09-27T02:51:49;8.90;99.90
11122;DHT22;5615;49.304;10.576;2022-09-27T02:54:25;8.90;99.90
11122;DHT22;5615;49.304;10.576;2022-09-27T02:57:01;8.90;99.90
11122;DHT22;5615;49.304;10.576;2022-09-27T02:59:34;8.90;99.90
11122;DHT22;5615;49.304;10.576;2022-09-27T03:02:11;8.90;99.90
11122;DHT22;5615;49.304;10.576;2022-09-27T03:04:43;8.90;99.90
11122;DHT22;5615;49.304;10.576;2022-09-27T03:07:13;8.90;99.90
11122;DHT22;5615;49.304;10.576;2022-09-27T03:09:42;8.90;99.90
11122;DHT22;5615;49.304;10.576;2022-09-27T03:12:10;9.00;99.90
11122;DHT22;5615;49.304;10.576;2022-09-27T03:14:37;8.90;99.90
11122;DHT22;5615;49.304;10.576;2022-09-27T03:17:03;8.90;99.90
11122;DHT22;5615;49.304;10.576;2022-09-27T03:19:31;8.90;99.90
11122;DHT22;5615;49.304;10.576;2022-09-27T03:21:58;8.80;99.90
11122;DHT22;5615;49.304;10.576;2022-09-27T03:24:25;8.80;99.90
11122;DHT22;5615;49.304;10.576;2022-09-27T03:26:51;8.90;99.90
11122;DHT22;5615;49.304;10.576;2022-09-27T03:29:18;8.90;99.90
11122;DHT22;5615;49.304;10.576;2022-09-27T03:31:44;8.90;99.90
11122;DHT22;5615;49.304;10.576;2022-09-27T03:34:11;8.90;99.90
11122;DHT22;5615;49.304;10.576;2022-09-27T03:36:39;8.90;99.90
11122;DHT22;5615;49.304;10.576;2022-09-27T03:39:06;8.90;99.90
11122;DHT22;5615;49.304;10.576;2022-09-27T03:41:32;8.90;99.90
11122;DHT22;5615;49.304;10.576;2022-09-27T03:43:59;8.90;99.90
11122;DHT22;5615;49.304;10.576;2022-09-27T03:46:26;8.90;99.90
11122;DHT22;5615;49.304;10.576;2022-09-27T03:48:53;8.90;99.90
11122;DHT22;5615;49.304;10.576;2022-09-27T03:51:20;8.90;99.90
11122;DHT22;5615;49.304;10.576;2022-09-27T03:53:48;8.90;99.90
11122;DHT22;5615;49.304;10.576;2022-09-27T03:56:14;8.90;99.90
11122;DHT22;5615;49.304;10.576;2022-09-27T03:58:41;8.90;99.90
11122;DHT22;5615;49.304;10.576;2022-09-27T04:01:08;8.90;99.90
11122;DHT22;5615;49.304;10.576;2022-09-27T04:03:34;8.90;99.90
11122;DHT22;5615;49.304;10.576;2022-09-27T04:06:02;8.90;99.90
11122;DHT22;5615;49.304;10.576;2022-09-27T04:08:29;8.90;99.90
11122;DHT22;5615;49.304;10.576;2022-09-27T04:10:57;8.90;99.90
11122;DHT22;5615;49.304;10.576;2022-09-27T04:13:24;8.90;99.90
11122;DHT22;5615;49.304;10.576;2022-09-27T04:15:50;8.90;99.90
11122;DHT22;5615;49.304;10.576;2022-09-27T04:18:17;8.70;99.90
11122;DHT22;5615;49.304;10.576;2022-09-27T04:20:44;8.60;99.90
11122;DHT22;5615;49.304;10.576;2022-09-27T04:23:10;8.50;99.90
11122;DHT22;5615;49.304;10.576;2022-09-27T04:25:37;8.50;99.90
11122;DHT22;5615;49.304;10.576;2022-09-27T04:28:06;8.50;99.90
11122;DHT22;5615;49.304;10.576;2022-09-27T04:30:32;8.50;99.90
11122;DHT22;5615;49.304;10.576;2022-09-27T04:32:59;8.50;99.90
11122;DHT22;5615;49.304;10.576;2022-09-27T04:35:26;8.50;99.90
11122;DHT22;5615;49.304;10.576;2022-09-27T04:38:10;8.50;99.90
11122;DHT22;5615;49.304;10.576;2022-09-27T04:40:37;8.40;99.90
11122;DHT22;5615;49.304;10.576;2022-09-27T04:43:05;8.40;99.90
11122;DHT22;5615;49.304;10.576;2022-09-27T04:45:32;8.40;99.90
11122;DHT22;5615;49.304;10.576;2022-09-27T04:47:59;8.40;99.90
11122;DHT22;5615;49.304;10.576;2022-09-27T04:50:26;8.30;99.90
11122;DHT22;5615;49.304;10.576;2022-09-27T04:52:53;8.30;99.90
11122;DHT22;5615;49.304;10.576;2022-09-27T04:55:20;8.30;99.90
11122;DHT22;5615;49.304;10.576;2022-09-27T04:57:48;8.30;99.90
11122;DHT22;5615;49.304;10.576;2022-09-27T05:00:16;8.30;99.90
11122;DHT22;5615;49.304;10.576;2022-09-27T05:02:43;8.30;99.90
11122;DHT22;5615;49.304;10.576;2022-09-27T05:05:10;8.30;99.90
11122;DHT22;5615;49.304;10.576;2022-09-27T05:07:37;8.30;99.90
11122;DHT22;5615;49.304;10.576;2022-09-27T05:10:04;8.30;99.90
11122;DHT22;5615;49.304;10.576;2022-09-27T05:12:31;8.20;99.90
11122;DHT22;5615;49.304;10.576;2022-09-27T05:14:58;8.20;99.90
11122;DHT22;5615;49.304;10.576;2022-09-27T05:17:26;8.30;99.90
11122;DHT22;5615;49.304;10.576;2022-09-27T05:19:52;8.30;99.90
11122;DHT22;5615;49.304;10.576;2022-09-27T05:22:19;8.30;99.90
11122;DHT22;5615;49.304;10.576;2022-09-27T05:24:46;8.30;99.90
11122;DHT22;5615;49.304;10.576;2022-09-27T05:27:14;8.30;99.90
11122;DHT22;5615;49.304;10.576;2022-09-27T05:29:43;8.30;99.90
11122;DHT22;5615;49.304;10.576;2022-09-27T05:32:09;8.30;99.90
11122;DHT22;5615;49.304;10.576;2022-09-27T05:34:37;8.30;99.90
11122;DHT22;5615;49.304;10.576;2022-09-27T05:37:04;8.30;99.90
11122;DHT22;5615;49.304;10.576;2022-09-27T05:39:31;8.30;99.90
11122;DHT22;5615;49.304;10.576;2022-09-27T05:41:57;8.30;99.90
11122;DHT22;5615;49.304;10.576;2022-09-27T05:44:24;8.30;99.90
11122;DHT22;5615;49.304;10.576;2022-09-27T05:46:51;8.30;99.90
11122;DHT22;5615;49.304;10.576;2022-09-27T05:49:17;8.20;99.90
11122;DHT22;5615;49.304;10.576;2022-09-27T05:51:46;8.20;99.90
11122;DHT22;5615;49.304;10.576;2022-09-27T05:54:12;8.20;99.90
11122;DHT22;5615;49.304;10.576;2022-09-27T05:56:39;8.20;99.90
11122;DHT22;5615;49.304;10.576;2022-09-27T05:59:06;8.20;99.90
11122;DHT22;5615;49.304;10.576;2022-09-27T06:01:32;8.20;99.90
11122;DHT22;5615;49.304;10.576;2022-09-27T06:04:00;8.20;99.90
11122;DHT22;5615;49.304;10.576;2022-09-27T06:06:26;8.10;99.90
11122;DHT22;5615;49.304;10.576;2022-09-27T06:08:54;8.10;99.90
11122;DHT22;5615;49.304;10.576;2022-09-27T06:11:22;8.10;99.90
11122;DHT22;5615;49.304;10.576;2022-09-27T06:13:49;8.10;99.90
11122;DHT22;5615;49.304;10.576;2022-09-27T06:16:16;8.10;99.90
11122;DHT22;5615;49.304;10.576;2022-09-27T06:18:42;8.10;99.90
11122;DHT22;5615;49.304;10.576;2022-09-27T06:21:09;8.10;99.90
11122;DHT22;5615;49.304;10.576;2022-09-27T06:23:37;8.10;99.90
11122;DHT22;5615;49.304;10.576;2022-09-27T06:26:06;8.10;99.90
11122;DHT22;5615;49.304;10.576;2022-09-27T06:28:32;8.10;99.90
11122;DHT22;5615;49.304;10.576;2022-09-27T06:30:59;8.00;99.90
11122;DHT22;5615;49.304;10.576;2022-09-27T06:33:27;8.00;99.90
11122;DHT22;5615;49.304;10.576;2022-09-27T06:35:53;8.00;99.90
11122;DHT22;5615;49.304;10.576;2022-09-27T06:38:20;8.00;99.90
11122;DHT22;5615;49.304;10.576;2022-09-27T06:40:48;8.10;99.90
11122;DHT22;5615;49.304;10.576;2022-09-27T06:43:18;8.10;99.90
11122;DHT22;5615;49.304;10.576;2022-09-27T06:45:45;8.10;99.90
11122;DHT22;5615;49.304;10.576;2022-09-27T06:48:13;8.10;99.90
11122;DHT22;5615;49.304;10.576;2022-09-27T06:50:41;8.10;99.90
11122;DHT22;5615;49.304;10.576;2022-09-27T06:53:10;8.20;99.90
11122;DHT22;5615;49.304;10.576;2022-09-27T06:55:38;8.30;99.90
11122;DHT22;5615;49.304;10.576;2022-09-27T06:58:05;8.30;99.90
11122;DHT22;5615;49.304;10.576;2022-09-27T07:00:51;8.30;99.90
11122;DHT22;5615;49.304;10.576;2022-09-27T07:03:18;8.40;99.90
11122;DHT22;5615;49.304;10.576;2022-09-27T07:05:53;8.50;99.90
11122;DHT22;5615;49.304;10.576;2022-09-27T07:08:21;8.50;99.90
11122;DHT22;5615;49.304;10.576;2022-09-27T07:10:48;8.50;99.90
11122;DHT22;5615;49.304;10.576;2022-09-27T07:13:15;8.60;99.90
11122;DHT22;5615;49.304;10.576;2022-09-27T07:15:41;8.70;99.90
11122;DHT22;5615;49.304;10.576;2022-09-27T07:18:09;8.70;99.90
11122;DHT22;5615;49.304;10.576;2022-09-27T07:20:36;8.70;99.90
11122;DHT22;5615;49.304;10.576;2022-09-27T07:23:03;8.70;99.90
11122;DHT22;5615;49.304;10.576;2022-09-27T07:25:30;8.80;99.90
11122;DHT22;5615;49.304;10.576;2022-09-27T07:27:59;8.80;99.90
11122;DHT22;5615;49.304;10.576;2022-09-27T07:30:26;8.90;99.90
11122;DHT22;5615;49.304;10.576;2022-09-27T07:32:56;9.10;99.90
11122;DHT22;5615;49.304;10.576;2022-09-27T07:35:25;9.30;99.90
11122;DHT22;5615;49.304;10.576;2022-09-27T07:37:52;9.40;99.90
11122;DHT22;5615;49.304;10.576;2022-09-27T07:40:19;9.40;99.90
11122;DHT22;5615;49.304;10.576;2022-09-27T07:42:46;9.30;99.90
11122;DHT22;5615;49.304;10.576;2022-09-27T07:45:12;9.30;99.90
11122;DHT22;5615;49.304;10.576;2022-09-27T07:47:40;9.30;99.90
11122;DHT22;5615;49.304;10.576;2022-09-27T07:50:08;9.30;99.90
11122;DHT22;5615;49.304;10.576;2022-09-27T07:52:39;9.40;99.90
11122;DHT22;5615;49.304;10.576;2022-09-27T07:55:07;9.40;99.90
11122;DHT22;5615;49.304;10.576;2022-09-27T07:57:35;9.20;99.90
11122;DHT22;5615;49.304;10.576;2022-09-27T08:00:03;9.20;99.90
11122;DHT22;5615;49.304;10.576;2022-09-27T08:02:30;9.10;99.90
11122;DHT22;5615;49.304;10.576;2022-09-27T08:04:58;9.10;99.90
11122;DHT22;5615;49.304;10.576;2022-09-27T08:07:24;8.80;99.90
11122;DHT22;5615;49.304;10.576;2022-09-27T08:09:52;8.70;99.90
11122;DHT22;5615;49.304;10.576;2022-09-27T08:12:19;8.50;99.90
11122;DHT22;5615;49.304;10.576;2022-09-27T08:14:46;8.30;99.90
11122;DHT22;5615;49.304;10.576;2022-09-27T08:17:13;8.30;99.90
11122;DHT22;5615;49.304;10.576;2022-09-27T08:19:40;8.20;99.90
11122;DHT22;5615;49.304;10.576;2022-09-27T08:22:09;8.30;99.90
11122;DHT22;5615;49.304;10.576;2022-09-27T08:24:37;8.30;99.90
11122;DHT22;5615;49.304;10.576;2022-09-27T08:27:05;8.40;99.90
11122;DHT22;5615;49.304;10.576;2022-09-27T08:29:33;8.40;99.90
11122;DHT22;5615;49.304;10.576;2022-09-27T08:32:00;8.50;99.90
11122;DHT22;5615;49.304;10.576;2022-09-27T08:34:27;8.50;99.90
11122;DHT22;5615;49.304;10.576;2022-09-27T08:36:53;8.60;99.90
11122;DHT22;5615;49.304;10.576;2022-09-27T08:39:20;8.70;99.90
11122;DHT22;5615;49.304;10.576;2022-09-27T08:41:53;8.70;99.90
11122;DHT22;5615;49.304;10.576;2022-09-27T08:44:28;8.70;99.90
11122;DHT22;5615;49.304;10.576;2022-09-27T08:47:03;8.90;99.90
11122;DHT22;5615;49.304;10.576;2022-09-27T08:49:36;8.90;99.90
11122;DHT22;5615;49.304;10.576;2022-09-27T08:52:07;8.90;99.90
11122;DHT22;5615;49.304;10.576;2022-09-27T08:54:35;8.90;99.90
11122;DHT22;5615;49.304;10.576;2022-09-27T08:57:05;8.80;99.90
11122;DHT22;5615;49.304;10.576;2022-09-27T08:59:40;8.70;99.90
11122;DHT22;5615;49.304;10.576;2022-09-27T09:02:15;8.70;99.90
11122;DHT22;5615;49.304;10.576;2022-09-27T09:04:43;8.60;99.90
11122;DHT22;5615;49.304;10.576;2022-09-27T09:07:21;8.70;99.90
11122;DHT22;5615;49.304;10.576;2022-09-27T09:09:55;9.00;99.90
11122;DHT22;5615;49.304;10.576;2022-09-27T09:12:45;9.20;99.90
11122;DHT22;5615;49.304;10.576;2022-09-27T09:15:27;9.10;99.90
11122;DHT22;5615;49.304;10.576;2022-09-27T09:18:19;8.90;99.90
11122;DHT22;5615;49.304;10.576;2022-09-27T09:20:54;8.90;99.90
11122;DHT22;5615;49.304;10.576;2022-09-27T09:23:39;9.00;99.90
11122;DHT22;5615;49.304;10.576;2022-09-27T09:26:14;9.10;99.90
11122;DHT22;5615;49.304;10.576;2022-09-27T09:28:51;9.10;99.90
11122;DHT22;5615;49.304;10.576;2022-09-27T09:31:23;9.00;99.90
11122;DHT22;5615;49.304;10.576;2022-09-27T09:33:56;8.70;99.90
11122;DHT22;5615;49.304;10.576;2022-09-27T09:36:27;8.80;99.90
11122;DHT22;5615;49.304;10.576;2022-09-27T09:38:59;8.80;99.90
11122;DHT22;5615;49.304;10.576;2022-09-27T09:41:30;8.90;99.90
11122;DHT22;5615;49.304;10.576;2022-09-27T09:44:02;9.00;99.90
11122;DHT22;5615;49.304;10.576;2022-09-27T09:46:34;9.10;99.90
11122;DHT22;5615;49.304;10.576;2022-09-27T09:49:07;9.00;99.90
11122;DHT22;5615;49.304;10.576;2022-09-27T09:51:43;9.00;99.90
11122;DHT22;5615;49.304;10.576;2022-09-27T09:54:20;9.00;99.90
11122;DHT22;5615;49.304;10.576;2022-09-27T09:56:50;9.10;99.90
11122;DHT22;5615;49.304;10.576;2022-09-27T09:59:25;8.90;99.90
11122;DHT22;5615;49.304;10.576;2022-09-27T10:01:58;9.20;99.90
11122;DHT22;5615;49.304;10.576;2022-09-27T10:04:27;9.10;99.90
11122;DHT22;5615;49.304;10.576;2022-09-27T10:06:55;9.20;99.90
11122;DHT22;5615;49.304;10.576;2022-09-27T10:09:25;9.20;99.90
11122;DHT22;5615;49.304;10.576;2022-09-27T10:11:53;8.90;99.90
11122;DHT22;5615;49.304;10.576;2022-09-27T10:14:20;8.60;99.90
11122;DHT22;5615;49.304;10.576;2022-09-27T10:16:51;8.50;99.90
11122;DHT22;5615;49.304;10.576;2022-09-27T10:19:25;8.40;99.90
11122;DHT22;5615;49.304;10.576;2022-09-27T10:21:58;8.50;99.90
11122;DHT22;5615;49.304;10.576;2022-09-27T10:24:26;8.50;99.90
11122;DHT22;5615;49.304;10.576;2022-09-27T10:26:57;8.50;99.90
11122;DHT22;5615;49.304;10.576;2022-09-27T10:29:29;8.60;99.90
11122;DHT22;5615;49.304;10.576;2022-09-27T10:31:58;9.00;99.90
11122;DHT22;5615;49.304;10.576;2022-09-27T10:34:32;9.50;99.90
11122;DHT22;5615;49.304;10.576;2022-09-27T10:37:16;9.50;99.90
11122;DHT22;5615;49.304;10.576;2022-09-27T10:39:44;10.00;99.90
11122;DHT22;5615;49.304;10.576;2022-09-27T10:42:20;9.80;99.90
11122;DHT22;5615;49.304;10.576;2022-09-27T10:44:47;10.00;99.90
11122;DHT22;5615;49.304;10.576;2022-09-27T10:47:17;9.80;99.90
11122;DHT22;5615;49.304;10.576;2022-09-27T10:49:48;9.60;99.90
11122;DHT22;5615;49.304;10.576;2022-09-27T10:52:18;9.90;99.90
11122;DHT22;5615;49.304;10.576;2022-09-27T10:54:52;10.80;99.90
11122;DHT22;5615;49.304;10.576;2022-09-27T10:57:21;11.10;99.90
11122;DHT22;5615;49.304;10.576;2022-09-27T10:59:51;11.40;99.90
11122;DHT22;5615;49.304;10.576;2022-09-27T11:02:19;11.00;99.90
11122;DHT22;5615;49.304;10.576;2022-09-27T11:05:08;10.60;99.90
11122;DHT22;5615;49.304;10.576;2022-09-27T11:07:36;10.20;99.90
11122;DHT22;5615;49.304;10.576;2022-09-27T11:10:21;10.20;99.90
11122;DHT22;5615;49.304;10.576;2022-09-27T11:13:05;10.20;99.90
11122;DHT22;5615;49.304;10.576;2022-09-27T11:15:43;10.00;99.90
11122;DHT22;5615;49.304;10.576;2022-09-27T11:18:21;10.10;99.90
11122;DHT22;5615;49.304;10.576;2022-09-27T11:20:57;11.20;99.90
11122;DHT22;5615;49.304;10.576;2022-09-27T11:26:28;10.20;99.90
11122;DHT22;5615;49.304;10.576;2022-09-27T11:29:05;9.90;99.90
11122;DHT22;5615;49.304;10.576;2022-09-27T11:31:41;9.90;99.90
11122;DHT22;5615;49.304;10.576;2022-09-27T11:37:17;10.00;99.90
11122;DHT22;5615;49.304;10.576;2022-09-27T11:40:02;10.70;99.90
11122;DHT22;5615;49.304;10.576;2022-09-27T11:42:45;10.10;99.90
11122;DHT22;5615;49.304;10.576;2022-09-27T11:45:30;9.60;99.90
11122;DHT22;5615;49.304;10.576;2022-09-27T11:48:10;9.50;99.90
11122;DHT22;5615;49.304;10.576;2022-09-27T11:51:04;9.60;99.90
11122;DHT22;5615;49.304;10.576;2022-09-27T11:53:47;10.60;99.90
11122;DHT22;5615;49.304;10.576;2022-09-27T11:56:23;10.30;99.90
11122;DHT22;5615;49.304;10.576;2022-09-27T11:59:03;9.90;99.90
11122;DHT22;5615;49.304;10.576;2022-09-27T12:01:37;9.60;99.90
11122;DHT22;5615;49.304;10.576;2022-09-27T12:04:22;9.30;99.90
11122;DHT22;5615;49.304;10.576;2022-09-27T12:06:58;9.20;99.90
11122;DHT22;5615;49.304;10.576;2022-09-27T12:09:33;8.60;99.90
11122;DHT22;5615;49.304;10.576;2022-09-27T12:12:04;8.20;99.90
11122;DHT22;5615;49.304;10.576;2022-09-27T12:14:36;8.20;99.90
11122;DHT22;5615;49.304;10.576;2022-09-27T12:17:06;8.40;99.90
11122;DHT22;5615;49.304;10.576;2022-09-27T12:19:39;8.70;99.90
11122;DHT22;5615;49.304;10.576;2022-09-27T12:22:12;8.90;99.90
11122;DHT22;5615;49.304;10.576;2022-09-27T12:24:42;9.00;99.90
11122;DHT22;5615;49.304;10.576;2022-09-27T12:27:14;9.10;99.90
11122;DHT22;5615;49.304;10.576;2022-09-27T12:29:43;9.30;99.90
11122;DHT22;5615;49.304;10.576;2022-09-27T12:32:16;9.30;99.90
11122;DHT22;5615;49.304;10.576;2022-09-27T12:34:46;9.30;99.90
11122;DHT22;5615;49.304;10.576;2022-09-27T12:37:18;9.30;99.90
11122;DHT22;5615;49.304;10.576;2022-09-27T12:39:51;9.20;99.90
11122;DHT22;5615;49.304;10.576;2022-09-27T12:42:22;9.30;99.90
11122;DHT22;5615;49.304;10.576;2022-09-27T12:44:50;9.60;99.90
11122;DHT22;5615;49.304;10.576;2022-09-27T12:47:28;9.80;99.90
11122;DHT22;5615;49.304;10.576;2022-09-27T12:50:03;9.90;99.90
11122;DHT22;5615;49.304;10.576;2022-09-27T12:52:37;9.80;99.90
11122;DHT22;5615;49.304;10.576;2022-09-27T12:55:29;9.60;99.90
11122;DHT22;5615;49.304;10.576;2022-09-27T12:58:23;9.60;99.90
11122;DHT22;5615;49.304;10.576;2022-09-27T13:00:57;9.80;99.90
11122;DHT22;5615;49.304;10.576;2022-09-27T13:03:42;9.70;99.90
11122;DHT22;5615;49.304;10.576;2022-09-27T13:06:35;9.80;99.90
11122;DHT22;5615;49.304;10.576;2022-09-27T13:09:25;9.60;99.90
11122;DHT22;5615;49.304;10.576;2022-09-27T13:12:01;9.70;99.90
11122;DHT22;5615;49.304;10.576;2022-09-27T13:14:33;9.90;99.90
11122;DHT22;5615;49.304;10.576;2022-09-27T13:17:01;9.90;99.90
11122;DHT22;5615;49.304;10.576;2022-09-27T13:19:40;9.60;99.90
11122;DHT22;5615;49.304;10.576;2022-09-27T13:22:09;9.80;99.90
11122;DHT22;5615;49.304;10.576;2022-09-27T13:24:46;9.80;99.90
11122;DHT22;5615;49.304;10.576;2022-09-27T13:27:37;9.80;99.90
11122;DHT22;5615;49.304;10.576;2022-09-27T13:33:32;10.00;99.90
11122;DHT22;5615;49.304;10.576;2022-09-27T13:36:24;9.70;99.90
11122;DHT22;5615;49.304;10.576;2022-09-27T13:39:19;9.60;99.90
11122;DHT22;5615;49.304;10.576;2022-09-27T13:42:07;9.60;99.90
11122;DHT22;5615;49.304;10.576;2022-09-27T13:44:44;9.60;99.90
11122;DHT22;5615;49.304;10.576;2022-09-27T13:47:23;9.30;99.90
11122;DHT22;5615;49.304;10.576;2022-09-27T13:49:54;9.10;99.90
11122;DHT22;5615;49.304;10.576;2022-09-27T13:52:27;8.80;99.90
11122;DHT22;5615;49.304;10.576;2022-09-27T13:54:59;8.70;99.90
11122;DHT22;5615;49.304;10.576;2022-09-27T13:57:56;8.80;99.90
11122;DHT22;5615;49.304;10.576;2022-09-27T14:00:27;9.10;99.90
11122;DHT22;5615;49.304;10.576;2022-09-27T14:03:00;9.20;99.90
11122;DHT22;5615;49.304;10.576;2022-09-27T14:05:32;9.20;99.90
11122;DHT22;5615;49.304;10.576;2022-09-27T14:08:01;9.20;99.90
11122;DHT22;5615;49.304;10.576;2022-09-27T14:10:29;9.40;99.90
11122;DHT22;5615;49.304;10.576;2022-09-27T14:12:59;10.00;99.90
11122;DHT22;5615;49.304;10.576;2022-09-27T14:15:28;10.30;99.90
11122;DHT22;5615;49.304;10.576;2022-09-27T14:17:57;10.30;99.90
11122;DHT22;5615;49.304;10.576;2022-09-27T14:20:33;10.90;99.90
11122;DHT22;5615;49.304;10.576;2022-09-27T14:23:00;10.90;99.90
11122;DHT22;5615;49.304;10.576;2022-09-27T14:25:27;10.60;99.90
11122;DHT22;5615;49.304;10.576;2022-09-27T14:27:54;10.40;99.90
11122;DHT22;5615;49.304;10.576;2022-09-27T14:30:24;10.10;99.90
11122;DHT22;5615;49.304;10.576;2022-09-27T14:32:54;10.10;99.90
11122;DHT22;5615;49.304;10.576;2022-09-27T14:35:24;10.00;99.90
11122;DHT22;5615;49.304;10.576;2022-09-27T14:38:10;9.90;99.90
11122;DHT22;5615;49.304;10.576;2022-09-27T14:40:40;10.00;99.90
11122;DHT22;5615;49.304;10.576;2022-09-27T14:43:14;9.90;99.90
11122;DHT22;5615;49.304;10.576;2022-09-27T14:45:41;10.10;99.90
11122;DHT22;5615;49.304;10.576;2022-09-27T14:48:20;10.00;99.90
11122;DHT22;5615;49.304;10.576;2022-09-27T14:50:55;12.90;99.90
11122;DHT22;5615;49.304;10.576;2022-09-27T14:53:27;15.50;99.90
11122;DHT22;5615;49.304;10.576;2022-09-27T14:55:54;15.40;99.90
11122;DHT22;5615;49.304;10.576;2022-09-27T14:58:22;14.00;99.90
11122;DHT22;5615;49.304;10.576;2022-09-27T15:00:50;12.70;99.90
11122;DHT22;5615;49.304;10.576;2022-09-27T15:03:21;11.90;99.90
11122;DHT22;5615;49.304;10.576;2022-09-27T15:05:50;11.70;99.90
11122;DHT22;5615;49.304;10.576;2022-09-27T15:08:19;11.30;99.90
11122;DHT22;5615;49.304;10.576;2022-09-27T15:10:48;14.50;99.90
11122;DHT22;5615;49.304;10.576;2022-09-27T15:13:16;16.20;99.90
11122;DHT22;5615;49.304;10.576;2022-09-27T15:15:45;16.00;99.90
11122;DHT22;5615;49.304;10.576;2022-09-27T15:18:38;15.90;99.90
11122;DHT22;5615;49.304;10.576;2022-09-27T15:21:07;13.90;99.90
11122;DHT22;5615;49.304;10.576;2022-09-27T15:23:36;13.70;99.90
11122;DHT22;5615;49.304;10.576;2022-09-27T15:26:07;15.50;99.90
11122;DHT22;5615;49.304;10.576;2022-09-27T15:28:36;13.90;99.90
11122;DHT22;5615;49.304;10.576;2022-09-27T15:31:07;13.70;99.90
11122;DHT22;5615;49.304;10.576;2022-09-27T15:33:35;12.50;99.90
11122;DHT22;5615;49.304;10.576;2022-09-27T15:36:04;11.90;99.90
11122;DHT22;5615;49.304;10.576;2022-09-27T15:38:32;11.30;99.90
11122;DHT22;5615;49.304;10.576;2022-09-27T15:41:06;11.10;99.90
11122;DHT22;5615;49.304;10.576;2022-09-27T15:43:36;10.70;99.90
11122;DHT22;5615;49.304;10.576;2022-09-27T15:49:18;10.10;99.90
11122;DHT22;5615;49.304;10.576;2022-09-27T15:51:47;10.10;99.90
11122;DHT22;5615;49.304;10.576;2022-09-27T15:54:16;10.20;99.90
11122;DHT22;5615;49.304;10.576;2022-09-27T15:56:43;10.30;99.90
11122;DHT22;5615;49.304;10.576;2022-09-27T15:59:17;10.20;99.90
11122;DHT22;5615;49.304;10.576;2022-09-27T16:01:44;10.00;99.90
11122;DHT22;5615;49.304;10.576;2022-09-27T16:04:11;9.70;99.90
11122;DHT22;5615;49.304;10.576;2022-09-27T16:06:39;9.60;99.90
11122;DHT22;5615;49.304;10.576;2022-09-27T16:09:11;9.60;99.90
11122;DHT22;5615;49.304;10.576;2022-09-27T16:11:39;9.50;99.90
11122;DHT22;5615;49.304;10.576;2022-09-27T16:14:06;9.60;99.90
11122;DHT22;5615;49.304;10.576;2022-09-27T16:16:33;9.50;99.90
11122;DHT22;5615;49.304;10.576;2022-09-27T16:18:59;9.50;99.90
11122;DHT22;5615;49.304;10.576;2022-09-27T16:21:26;9.40;99.90
11122;DHT22;5615;49.304;10.576;2022-09-27T16:23:54;9.30;99.90